sensor_id;sensor_type;location;lat;lon;timestamp;P1;durP1;ratioP1;P2;durP2;ratioP2
15635;SDS011;7917;50.818;6.972;2023-04-06T00:00:33;20.67;;;12.27;;
15635;SDS011;7917;50.818;6.972;2023-04-06T00:03:00;21.42;;;12.82;;
15635;SDS011;7917;50.818;6.972;2023-04-06T00:05:27;16.58;;;10.65;;
15635;SDS011;7917;50.818;6.972;2023-04-06T00:07:55;21.27;;;12.75;;
15635;SDS011;7917;50.818;6.972;2023-04-06T00:10:26;19.92;;;11.65;;
15635;SDS011;7917;50.818;6.972;2023-04-06T00:12:54;20.45;;;12.45;;
15635;SDS011;7917;50.818;6.972;2023-04-06T00:15:40;23.65;;;11.82;;
15635;SDS011;7917;50.818;6.972;2023-04-06T00:18:07;18.40;;;11.93;;
15635;SDS011;7917;50.818;6.972;2023-04-06T00:20:34;28.38;;;13.23;;
15635;SDS011;7917;50.818;6.972;2023-04-06T00:23:00;20.30;;;12.52;;
15635;SDS011;7917;50.818;6.972;2023-04-06T00:25:27;19.20;;;12.15;;
15635;SDS011;7917;50.818;6.972;2023-04-06T00:27:54;25.60;;;12.70;;
15635;SDS011;7917;50.818;6.972;2023-04-06T00:30:39;22.08;;;12.95;;
15635;SDS011;7917;50.818;6.972;2023-04-06T00:33:07;23.30;;;12.68;;
15635;SDS011;7917;50.818;6.972;2023-04-06T00:35:35;20.58;;;14.63;;
15635;SDS011;7917;50.818;6.972;2023-04-06T00:38:04;27.50;;;13.35;;
15635;SDS011;7917;50.818;6.972;2023-04-06T00:40:30;24.92;;;13.27;;
15635;SDS011;7917;50.818;6.972;2023-04-06T00:42:57;24.38;;;13.13;;
15635;SDS011;7917;50.818;6.972;2023-04-06T00:45:24;16.85;;;12.13;;
15635;SDS011;7917;50.818;6.972;2023-04-06T00:47:51;21.45;;;13.20;;
15635;SDS011;7917;50.818;6.972;2023-04-06T00:50:19;24.67;;;12.80;;
15635;SDS011;7917;50.818;6.972;2023-04-06T00:52:45;21.35;;;12.93;;
15635;SDS011;7917;50.818;6.972;2023-04-06T00:55:12;21.60;;;13.40;;
15635;SDS011;7917;50.818;6.972;2023-04-06T00:57:39;23.55;;;13.10;;
15635;SDS011;7917;50.818;6.972;2023-04-06T01:00:24;19.27;;;12.45;;
15635;SDS011;7917;50.818;6.972;2023-04-06T01:02:51;23.13;;;12.93;;
15635;SDS011;7917;50.818;6.972;2023-04-06T01:05:19;24.10;;;12.77;;
15635;SDS011;7917;50.818;6.972;2023-04-06T01:07:45;27.48;;;13.75;;
15635;SDS011;7917;50.818;6.972;2023-04-06T01:10:21;24.38;;;12.82;;
15635;SDS011;7917;50.818;6.972;2023-04-06T01:12:49;19.63;;;12.60;;
15635;SDS011;7917;50.818;6.972;2023-04-06T01:15:16;21.48;;;13.98;;
15635;SDS011;7917;50.818;6.972;2023-04-06T01:17:43;22.60;;;12.77;;
15635;SDS011;7917;50.818;6.972;2023-04-06T01:20:09;21.35;;;13.05;;
15635;SDS011;7917;50.818;6.972;2023-04-06T01:22:37;23.05;;;12.95;;
15635;SDS011;7917;50.818;6.972;2023-04-06T01:25:04;23.25;;;14.40;;
15635;SDS011;7917;50.818;6.972;2023-04-06T01:27:31;23.08;;;13.38;;
15635;SDS011;7917;50.818;6.972;2023-04-06T01:29:58;22.08;;;12.85;;
15635;SDS011;7917;50.818;6.972;2023-04-06T01:32:25;23.88;;;13.88;;
15635;SDS011;7917;50.818;6.972;2023-04-06T01:34:51;20.13;;;12.43;;
15635;SDS011;7917;50.818;6.972;2023-04-06T01:37:18;20.77;;;12.57;;
15635;SDS011;7917;50.818;6.972;2023-04-06T01:39:45;25.42;;;14.60;;
15635;SDS011;7917;50.818;6.972;2023-04-06T01:42:12;21.50;;;13.23;;
15635;SDS011;7917;50.818;6.972;2023-04-06T01:44:38;19.95;;;13.18;;
15635;SDS011;7917;50.818;6.972;2023-04-06T01:47:05;20.95;;;13.27;;
15635;SDS011;7917;50.818;6.972;2023-04-06T01:49:31;21.88;;;12.75;;
15635;SDS011;7917;50.818;6.972;2023-04-06T01:52:00;23.35;;;14.45;;
15635;SDS011;7917;50.818;6.972;2023-04-06T01:54:27;22.15;;;12.88;;
15635;SDS011;7917;50.818;6.972;2023-04-06T01:56:54;24.92;;;14.45;;
15635;SDS011;7917;50.818;6.972;2023-04-06T01:59:21;21.63;;;14.18;;
15635;SDS011;7917;50.818;6.972;2023-04-06T02:01:47;24.77;;;14.02;;
15635;SDS011;7917;50.818;6.972;2023-04-06T02:04:14;28.25;;;13.38;;
15635;SDS011;7917;50.818;6.972;2023-04-06T02:06:41;22.25;;;13.32;;
15635;SDS011;7917;50.818;6.972;2023-04-06T02:09:07;21.10;;;13.13;;
15635;SDS011;7917;50.818;6.972;2023-04-06T02:11:34;22.85;;;12.68;;
15635;SDS011;7917;50.818;6.972;2023-04-06T02:14:02;23.42;;;12.77;;
15635;SDS011;7917;50.818;6.972;2023-04-06T02:16:28;20.80;;;13.10;;
15635;SDS011;7917;50.818;6.972;2023-04-06T02:18:55;21.85;;;12.52;;
15635;SDS011;7917;50.818;6.972;2023-04-06T02:21:21;19.95;;;12.23;;
15635;SDS011;7917;50.818;6.972;2023-04-06T02:23:48;20.35;;;12.98;;
15635;SDS011;7917;50.818;6.972;2023-04-06T02:26:15;23.23;;;12.82;;
15635;SDS011;7917;50.818;6.972;2023-04-06T02:28:42;19.77;;;12.45;;
15635;SDS011;7917;50.818;6.972;2023-04-06T02:31:09;22.55;;;12.55;;
15635;SDS011;7917;50.818;6.972;2023-04-06T02:33:36;20.73;;;12.35;;
15635;SDS011;7917;50.818;6.972;2023-04-06T02:36:05;18.27;;;12.18;;
15635;SDS011;7917;50.818;6.972;2023-04-06T02:38:32;19.60;;;11.68;;
15635;SDS011;7917;50.818;6.972;2023-04-06T02:40:59;18.60;;;12.20;;
15635;SDS011;7917;50.818;6.972;2023-04-06T02:43:28;21.88;;;12.85;;
15635;SDS011;7917;50.818;6.972;2023-04-06T02:45:55;20.67;;;12.25;;
15635;SDS011;7917;50.818;6.972;2023-04-06T02:48:22;17.92;;;12.18;;
15635;SDS011;7917;50.818;6.972;2023-04-06T02:50:49;16.15;;;11.48;;
15635;SDS011;7917;50.818;6.972;2023-04-06T02:53:16;20.88;;;13.23;;
15635;SDS011;7917;50.818;6.972;2023-04-06T02:55:42;37.20;;;19.85;;
15635;SDS011;7917;50.818;6.972;2023-04-06T02:58:09;34.00;;;18.55;;
15635;SDS011;7917;50.818;6.972;2023-04-06T03:07:20;31.35;;;17.25;;
15635;SDS011;7917;50.818;6.972;2023-04-06T03:09:47;25.55;;;16.15;;
15635;SDS011;7917;50.818;6.972;2023-04-06T03:12:14;25.45;;;15.40;;
15635;SDS011;7917;50.818;6.972;2023-04-06T03:14:44;23.52;;;14.77;;
15635;SDS011;7917;50.818;6.972;2023-04-06T03:17:10;25.42;;;13.45;;
15635;SDS011;7917;50.818;6.972;2023-04-06T03:19:37;20.65;;;12.90;;
15635;SDS011;7917;50.818;6.972;2023-04-06T03:22:04;20.92;;;13.43;;
15635;SDS011;7917;50.818;6.972;2023-04-06T03:24:31;22.38;;;13.88;;
15635;SDS011;7917;50.818;6.972;2023-04-06T03:26:58;25.40;;;13.93;;
15635;SDS011;7917;50.818;6.972;2023-04-06T03:29:25;25.42;;;15.68;;
15635;SDS011;7917;50.818;6.972;2023-04-06T03:31:52;26.55;;;14.65;;
15635;SDS011;7917;50.818;6.972;2023-04-06T03:34:19;21.33;;;13.15;;
15635;SDS011;7917;50.818;6.972;2023-04-06T03:36:46;25.70;;;13.77;;
15635;SDS011;7917;50.818;6.972;2023-04-06T03:39:12;22.17;;;13.25;;
15635;SDS011;7917;50.818;6.972;2023-04-06T03:41:40;20.95;;;13.60;;
15635;SDS011;7917;50.818;6.972;2023-04-06T03:44:06;19.45;;;13.05;;
15635;SDS011;7917;50.818;6.972;2023-04-06T03:46:33;20.98;;;12.93;;
15635;SDS011;7917;50.818;6.972;2023-04-06T03:49:01;24.80;;;13.75;;
15635;SDS011;7917;50.818;6.972;2023-04-06T03:51:27;19.00;;;12.82;;
15635;SDS011;7917;50.818;6.972;2023-04-06T03:53:54;20.92;;;12.40;;
15635;SDS011;7917;50.818;6.972;2023-04-06T03:56:21;19.88;;;12.38;;
15635;SDS011;7917;50.818;6.972;2023-04-06T03:58:48;19.17;;;13.07;;
15635;SDS011;7917;50.818;6.972;2023-04-06T04:01:16;19.88;;;12.68;;
15635;SDS011;7917;50.818;6.972;2023-04-06T04:03:42;18.85;;;12.05;;
15635;SDS011;7917;50.818;6.972;2023-04-06T04:06:21;21.23;;;12.32;;
15635;SDS011;7917;50.818;6.972;2023-04-06T04:08:48;17.15;;;11.13;;
15635;SDS011;7917;50.818;6.972;2023-04-06T04:11:15;19.33;;;12.65;;
15635;SDS011;7917;50.818;6.972;2023-04-06T04:13:42;22.27;;;12.63;;
15635;SDS011;7917;50.818;6.972;2023-04-06T04:16:09;20.80;;;13.00;;
15635;SDS011;7917;50.818;6.972;2023-04-06T04:18:45;21.35;;;13.10;;
15635;SDS011;7917;50.818;6.972;2023-04-06T04:21:13;20.52;;;12.40;;
15635;SDS011;7917;50.818;6.972;2023-04-06T04:23:40;22.10;;;12.80;;
15635;SDS011;7917;50.818;6.972;2023-04-06T04:26:06;21.83;;;13.15;;
15635;SDS011;7917;50.818;6.972;2023-04-06T04:28:33;22.88;;;12.27;;
15635;SDS011;7917;50.818;6.972;2023-04-06T04:31:00;25.80;;;14.23;;
15635;SDS011;7917;50.818;6.972;2023-04-06T04:33:27;20.45;;;13.23;;
15635;SDS011;7917;50.818;6.972;2023-04-06T04:35:54;20.13;;;12.75;;
15635;SDS011;7917;50.818;6.972;2023-04-06T04:38:21;23.13;;;13.80;;
15635;SDS011;7917;50.818;6.972;2023-04-06T04:40:54;23.88;;;13.60;;
15635;SDS011;7917;50.818;6.972;2023-04-06T04:43:32;21.92;;;13.15;;
15635;SDS011;7917;50.818;6.972;2023-04-06T04:45:58;21.25;;;13.88;;
15635;SDS011;7917;50.818;6.972;2023-04-06T04:48:27;23.65;;;13.70;;
15635;SDS011;7917;50.818;6.972;2023-04-06T04:50:54;22.58;;;13.52;;
15635;SDS011;7917;50.818;6.972;2023-04-06T04:53:21;20.67;;;13.10;;
15635;SDS011;7917;50.818;6.972;2023-04-06T04:55:47;21.13;;;12.80;;
15635;SDS011;7917;50.818;6.972;2023-04-06T04:58:14;25.40;;;13.77;;
15635;SDS011;7917;50.818;6.972;2023-04-06T05:00:46;20.98;;;12.40;;
15635;SDS011;7917;50.818;6.972;2023-04-06T05:03:14;20.55;;;12.63;;
15635;SDS011;7917;50.818;6.972;2023-04-06T05:05:44;26.60;;;13.25;;
15635;SDS011;7917;50.818;6.972;2023-04-06T05:08:11;22.65;;;13.73;;
15635;SDS011;7917;50.818;6.972;2023-04-06T05:10:38;22.05;;;13.88;;
15635;SDS011;7917;50.818;6.972;2023-04-06T05:13:05;21.35;;;13.63;;
15635;SDS011;7917;50.818;6.972;2023-04-06T05:15:31;21.23;;;13.20;;
15635;SDS011;7917;50.818;6.972;2023-04-06T05:18:03;21.77;;;13.27;;
15635;SDS011;7917;50.818;6.972;2023-04-06T05:20:29;25.90;;;14.95;;
15635;SDS011;7917;50.818;6.972;2023-04-06T05:22:57;20.15;;;14.20;;
15635;SDS011;7917;50.818;6.972;2023-04-06T05:25:24;21.65;;;13.05;;
15635;SDS011;7917;50.818;6.972;2023-04-06T05:27:51;24.13;;;14.23;;
15635;SDS011;7917;50.818;6.972;2023-04-06T05:30:20;18.20;;;12.75;;
15635;SDS011;7917;50.818;6.972;2023-04-06T05:32:49;24.60;;;13.13;;
15635;SDS011;7917;50.818;6.972;2023-04-06T05:35:15;21.55;;;13.48;;
15635;SDS011;7917;50.818;6.972;2023-04-06T05:37:42;26.85;;;14.27;;
15635;SDS011;7917;50.818;6.972;2023-04-06T05:40:11;24.25;;;14.00;;
15635;SDS011;7917;50.818;6.972;2023-04-06T05:42:37;20.55;;;13.35;;
15635;SDS011;7917;50.818;6.972;2023-04-06T05:45:11;20.58;;;12.88;;
15635;SDS011;7917;50.818;6.972;2023-04-06T05:47:44;18.05;;;13.05;;
15635;SDS011;7917;50.818;6.972;2023-04-06T05:50:11;19.60;;;13.32;;
15635;SDS011;7917;50.818;6.972;2023-04-06T05:52:40;21.33;;;13.13;;
15635;SDS011;7917;50.818;6.972;2023-04-06T05:55:08;18.40;;;11.85;;
15635;SDS011;7917;50.818;6.972;2023-04-06T05:57:40;22.02;;;12.93;;
15635;SDS011;7917;50.818;6.972;2023-04-06T06:00:07;18.50;;;12.77;;
15635;SDS011;7917;50.818;6.972;2023-04-06T06:02:39;19.45;;;12.68;;
15635;SDS011;7917;50.818;6.972;2023-04-06T06:05:08;24.88;;;12.40;;
15635;SDS011;7917;50.818;6.972;2023-04-06T06:07:35;19.80;;;12.75;;
15635;SDS011;7917;50.818;6.972;2023-04-06T06:10:01;18.30;;;12.05;;
15635;SDS011;7917;50.818;6.972;2023-04-06T06:12:29;18.10;;;11.98;;
15635;SDS011;7917;50.818;6.972;2023-04-06T06:14:55;20.73;;;12.15;;
15635;SDS011;7917;50.818;6.972;2023-04-06T06:17:22;17.90;;;12.63;;
15635;SDS011;7917;50.818;6.972;2023-04-06T06:19:52;20.98;;;11.27;;
15635;SDS011;7917;50.818;6.972;2023-04-06T06:22:18;22.20;;;11.73;;
15635;SDS011;7917;50.818;6.972;2023-04-06T06:24:45;16.98;;;11.25;;
15635;SDS011;7917;50.818;6.972;2023-04-06T06:27:12;17.63;;;11.02;;
15635;SDS011;7917;50.818;6.972;2023-04-06T06:29:39;22.40;;;11.00;;
15635;SDS011;7917;50.818;6.972;2023-04-06T06:32:06;18.98;;;11.07;;
15635;SDS011;7917;50.818;6.972;2023-04-06T06:34:34;16.95;;;11.00;;
15635;SDS011;7917;50.818;6.972;2023-04-06T06:37:05;19.35;;;10.50;;
15635;SDS011;7917;50.818;6.972;2023-04-06T06:39:32;16.52;;;9.70;;
15635;SDS011;7917;50.818;6.972;2023-04-06T06:42:00;21.70;;;10.88;;
15635;SDS011;7917;50.818;6.972;2023-04-06T06:44:27;16.10;;;9.85;;
15635;SDS011;7917;50.818;6.972;2023-04-06T06:46:54;18.40;;;9.93;;
15635;SDS011;7917;50.818;6.972;2023-04-06T06:49:21;13.88;;;9.40;;
15635;SDS011;7917;50.818;6.972;2023-04-06T06:51:48;15.40;;;9.45;;
15635;SDS011;7917;50.818;6.972;2023-04-06T06:54:14;17.52;;;9.18;;
15635;SDS011;7917;50.818;6.972;2023-04-06T06:56:47;13.10;;;8.95;;
15635;SDS011;7917;50.818;6.972;2023-04-06T06:59:13;15.65;;;9.65;;
15635;SDS011;7917;50.818;6.972;2023-04-06T07:01:42;17.30;;;10.23;;
15635;SDS011;7917;50.818;6.972;2023-04-06T07:04:09;12.15;;;8.88;;
15635;SDS011;7917;50.818;6.972;2023-04-06T07:06:36;14.45;;;9.40;;
15635;SDS011;7917;50.818;6.972;2023-04-06T07:09:03;16.13;;;9.45;;
15635;SDS011;7917;50.818;6.972;2023-04-06T07:11:29;15.07;;;9.95;;
15635;SDS011;7917;50.818;6.972;2023-04-06T07:13:57;13.00;;;9.27;;
15635;SDS011;7917;50.818;6.972;2023-04-06T07:16:24;13.40;;;9.15;;
15635;SDS011;7917;50.818;6.972;2023-04-06T07:18:50;13.65;;;9.30;;
15635;SDS011;7917;50.818;6.972;2023-04-06T07:21:18;14.48;;;8.60;;
15635;SDS011;7917;50.818;6.972;2023-04-06T07:23:44;15.32;;;9.27;;
15635;SDS011;7917;50.818;6.972;2023-04-06T07:26:13;16.48;;;9.27;;
15635;SDS011;7917;50.818;6.972;2023-04-06T07:28:40;12.20;;;8.90;;
15635;SDS011;7917;50.818;6.972;2023-04-06T07:31:06;12.70;;;9.27;;
15635;SDS011;7917;50.818;6.972;2023-04-06T07:33:33;16.10;;;9.30;;
15635;SDS011;7917;50.818;6.972;2023-04-06T07:36:02;13.27;;;8.63;;
15635;SDS011;7917;50.818;6.972;2023-04-06T07:38:30;12.30;;;9.55;;
15635;SDS011;7917;50.818;6.972;2023-04-06T07:40:57;16.58;;;10.82;;
15635;SDS011;7917;50.818;6.972;2023-04-06T07:43:25;12.45;;;9.40;;
15635;SDS011;7917;50.818;6.972;2023-04-06T07:45:55;13.07;;;8.55;;
15635;SDS011;7917;50.818;6.972;2023-04-06T07:48:22;15.85;;;9.63;;
15635;SDS011;7917;50.818;6.972;2023-04-06T07:50:49;13.57;;;8.82;;
15635;SDS011;7917;50.818;6.972;2023-04-06T07:53:18;15.65;;;9.40;;
15635;SDS011;7917;50.818;6.972;2023-04-06T07:55:46;14.38;;;9.13;;
15635;SDS011;7917;50.818;6.972;2023-04-06T07:58:12;14.98;;;8.80;;
15635;SDS011;7917;50.818;6.972;2023-04-06T08:00:39;15.18;;;9.32;;
15635;SDS011;7917;50.818;6.972;2023-04-06T08:03:07;13.07;;;9.30;;
15635;SDS011;7917;50.818;6.972;2023-04-06T08:05:34;12.00;;;9.10;;
15635;SDS011;7917;50.818;6.972;2023-04-06T08:08:01;19.55;;;9.70;;
15635;SDS011;7917;50.818;6.972;2023-04-06T08:10:28;13.65;;;9.73;;
15635;SDS011;7917;50.818;6.972;2023-04-06T08:12:55;13.77;;;8.93;;
15635;SDS011;7917;50.818;6.972;2023-04-06T08:15:21;16.40;;;10.85;;
15635;SDS011;7917;50.818;6.972;2023-04-06T08:17:48;15.27;;;8.93;;
15635;SDS011;7917;50.818;6.972;2023-04-06T08:20:15;19.90;;;10.00;;
15635;SDS011;7917;50.818;6.972;2023-04-06T08:22:41;15.25;;;9.48;;
15635;SDS011;7917;50.818;6.972;2023-04-06T08:25:09;12.13;;;9.30;;
15635;SDS011;7917;50.818;6.972;2023-04-06T08:27:36;17.40;;;9.23;;
15635;SDS011;7917;50.818;6.972;2023-04-06T08:30:04;14.98;;;10.10;;
15635;SDS011;7917;50.818;6.972;2023-04-06T08:32:31;14.55;;;9.32;;
15635;SDS011;7917;50.818;6.972;2023-04-06T08:34:58;13.07;;;9.90;;
15635;SDS011;7917;50.818;6.972;2023-04-06T08:37:25;12.35;;;9.63;;
15635;SDS011;7917;50.818;6.972;2023-04-06T08:39:51;14.68;;;9.48;;
15635;SDS011;7917;50.818;6.972;2023-04-06T08:42:19;19.23;;;10.32;;
15635;SDS011;7917;50.818;6.972;2023-04-06T08:44:46;14.60;;;9.10;;
15635;SDS011;7917;50.818;6.972;2023-04-06T08:47:16;12.15;;;8.02;;
15635;SDS011;7917;50.818;6.972;2023-04-06T08:49:42;15.00;;;9.20;;
15635;SDS011;7917;50.818;6.972;2023-04-06T08:52:14;16.90;;;9.32;;
15635;SDS011;7917;50.818;6.972;2023-04-06T08:54:43;15.65;;;10.35;;
15635;SDS011;7917;50.818;6.972;2023-04-06T08:57:10;12.50;;;9.27;;
15635;SDS011;7917;50.818;6.972;2023-04-06T08:59:37;14.25;;;9.65;;
15635;SDS011;7917;50.818;6.972;2023-04-06T09:02:04;15.23;;;10.68;;
15635;SDS011;7917;50.818;6.972;2023-04-06T09:04:32;14.70;;;9.65;;
15635;SDS011;7917;50.818;6.972;2023-04-06T09:07:00;16.55;;;9.43;;
15635;SDS011;7917;50.818;6.972;2023-04-06T09:09:27;16.88;;;11.45;;
15635;SDS011;7917;50.818;6.972;2023-04-06T09:11:54;13.38;;;9.07;;
15635;SDS011;7917;50.818;6.972;2023-04-06T09:14:34;15.45;;;9.77;;
15635;SDS011;7917;50.818;6.972;2023-04-06T09:17:02;15.43;;;10.18;;
15635;SDS011;7917;50.818;6.972;2023-04-06T09:19:28;16.98;;;9.57;;
15635;SDS011;7917;50.818;6.972;2023-04-06T09:22:01;13.93;;;9.73;;
15635;SDS011;7917;50.818;6.972;2023-04-06T09:24:38;20.58;;;9.85;;
15635;SDS011;7917;50.818;6.972;2023-04-06T09:27:06;15.75;;;9.60;;
15635;SDS011;7917;50.818;6.972;2023-04-06T09:29:32;16.90;;;9.63;;
15635;SDS011;7917;50.818;6.972;2023-04-06T09:32:03;15.30;;;9.90;;
15635;SDS011;7917;50.818;6.972;2023-04-06T09:34:30;16.30;;;10.27;;
15635;SDS011;7917;50.818;6.972;2023-04-06T09:36:57;15.70;;;9.45;;
15635;SDS011;7917;50.818;6.972;2023-04-06T09:39:24;17.73;;;9.90;;
15635;SDS011;7917;50.818;6.972;2023-04-06T09:41:51;15.05;;;10.10;;
15635;SDS011;7917;50.818;6.972;2023-04-06T09:44:19;14.65;;;9.85;;
15635;SDS011;7917;50.818;6.972;2023-04-06T09:46:46;14.48;;;9.85;;
15635;SDS011;7917;50.818;6.972;2023-04-06T09:49:13;18.45;;;10.00;;
15635;SDS011;7917;50.818;6.972;2023-04-06T09:51:41;13.95;;;9.30;;
15635;SDS011;7917;50.818;6.972;2023-04-06T09:54:10;15.88;;;9.85;;
15635;SDS011;7917;50.818;6.972;2023-04-06T09:56:43;14.43;;;9.68;;
15635;SDS011;7917;50.818;6.972;2023-04-06T09:59:13;14.18;;;9.52;;
15635;SDS011;7917;50.818;6.972;2023-04-06T10:01:43;17.10;;;10.48;;
15635;SDS011;7917;50.818;6.972;2023-04-06T10:04:21;14.38;;;10.07;;
15635;SDS011;7917;50.818;6.972;2023-04-06T10:06:58;19.15;;;11.43;;
15635;SDS011;7917;50.818;6.972;2023-04-06T10:09:28;17.17;;;10.07;;
15635;SDS011;7917;50.818;6.972;2023-04-06T10:12:01;17.00;;;11.35;;
15635;SDS011;7917;50.818;6.972;2023-04-06T10:14:29;17.35;;;11.50;;
15635;SDS011;7917;50.818;6.972;2023-04-06T10:16:57;18.83;;;11.23;;
15635;SDS011;7917;50.818;6.972;2023-04-06T10:19:24;18.67;;;10.85;;
15635;SDS011;7917;50.818;6.972;2023-04-06T10:21:58;18.00;;;10.00;;
15635;SDS011;7917;50.818;6.972;2023-04-06T10:24:25;16.98;;;9.93;;
15635;SDS011;7917;50.818;6.972;2023-04-06T10:26:56;16.67;;;9.93;;
15635;SDS011;7917;50.818;6.972;2023-04-06T10:29:24;20.63;;;10.02;;
15635;SDS011;7917;50.818;6.972;2023-04-06T10:31:54;19.13;;;10.55;;
15635;SDS011;7917;50.818;6.972;2023-04-06T10:34:20;17.63;;;10.77;;
15635;SDS011;7917;50.818;6.972;2023-04-06T10:36:47;18.48;;;10.48;;
15635;SDS011;7917;50.818;6.972;2023-04-06T10:39:14;17.67;;;9.85;;
15635;SDS011;7917;50.818;6.972;2023-04-06T10:41:51;18.60;;;10.35;;
15635;SDS011;7917;50.818;6.972;2023-04-06T10:44:19;17.08;;;11.00;;
15635;SDS011;7917;50.818;6.972;2023-04-06T10:46:52;17.02;;;10.25;;
15635;SDS011;7917;50.818;6.972;2023-04-06T10:49:20;18.40;;;10.63;;
15635;SDS011;7917;50.818;6.972;2023-04-06T10:51:50;17.60;;;10.15;;
15635;SDS011;7917;50.818;6.972;2023-04-06T10:54:20;19.95;;;10.27;;
15635;SDS011;7917;50.818;6.972;2023-04-06T10:56:47;17.27;;;9.95;;
15635;SDS011;7917;50.818;6.972;2023-04-06T10:59:18;18.30;;;10.40;;
15635;SDS011;7917;50.818;6.972;2023-04-06T11:01:46;18.10;;;10.50;;
15635;SDS011;7917;50.818;6.972;2023-04-06T11:04:16;17.65;;;10.73;;
15635;SDS011;7917;50.818;6.972;2023-04-06T11:06:46;18.02;;;11.07;;
15635;SDS011;7917;50.818;6.972;2023-04-06T11:09:22;21.60;;;11.68;;
15635;SDS011;7917;50.818;6.972;2023-04-06T11:11:50;19.45;;;11.45;;
15635;SDS011;7917;50.818;6.972;2023-04-06T11:14:18;18.58;;;10.30;;
15635;SDS011;7917;50.818;6.972;2023-04-06T11:16:46;17.48;;;10.50;;
15635;SDS011;7917;50.818;6.972;2023-04-06T11:19:14;20.77;;;11.32;;
15635;SDS011;7917;50.818;6.972;2023-04-06T11:21:42;18.20;;;11.57;;
15635;SDS011;7917;50.818;6.972;2023-04-06T11:24:13;20.15;;;11.52;;
15635;SDS011;7917;50.818;6.972;2023-04-06T11:26:42;21.38;;;12.20;;
15635;SDS011;7917;50.818;6.972;2023-04-06T11:29:10;20.77;;;12.23;;
15635;SDS011;7917;50.818;6.972;2023-04-06T11:31:41;21.65;;;11.40;;
15635;SDS011;7917;50.818;6.972;2023-04-06T11:34:13;16.38;;;9.98;;
15635;SDS011;7917;50.818;6.972;2023-04-06T11:36:44;18.13;;;10.73;;
15635;SDS011;7917;50.818;6.972;2023-04-06T11:39:13;18.17;;;11.65;;
15635;SDS011;7917;50.818;6.972;2023-04-06T11:41:47;22.77;;;12.50;;
15635;SDS011;7917;50.818;6.972;2023-04-06T11:44:14;18.25;;;12.02;;
15635;SDS011;7917;50.818;6.972;2023-04-06T11:46:41;19.90;;;10.75;;
15635;SDS011;7917;50.818;6.972;2023-04-06T11:49:18;16.90;;;10.25;;
15635;SDS011;7917;50.818;6.972;2023-04-06T11:51:46;20.65;;;10.38;;
15635;SDS011;7917;50.818;6.972;2023-04-06T11:54:13;36.47;;;13.60;;
15635;SDS011;7917;50.818;6.972;2023-04-06T11:56:42;20.95;;;10.57;;
15635;SDS011;7917;50.818;6.972;2023-04-06T11:59:13;16.42;;;10.13;;
15635;SDS011;7917;50.818;6.972;2023-04-06T12:01:44;15.65;;;9.32;;
15635;SDS011;7917;50.818;6.972;2023-04-06T12:04:12;13.00;;;9.30;;
15635;SDS011;7917;50.818;6.972;2023-04-06T12:06:42;14.77;;;9.13;;
15635;SDS011;7917;50.818;6.972;2023-04-06T12:09:11;16.52;;;9.63;;
15635;SDS011;7917;50.818;6.972;2023-04-06T12:11:38;19.05;;;8.95;;
15635;SDS011;7917;50.818;6.972;2023-04-06T12:14:06;17.85;;;9.82;;
15635;SDS011;7917;50.818;6.972;2023-04-06T12:16:33;13.65;;;9.40;;
15635;SDS011;7917;50.818;6.972;2023-04-06T12:19:00;15.55;;;9.43;;
15635;SDS011;7917;50.818;6.972;2023-04-06T12:21:29;17.30;;;9.80;;
15635;SDS011;7917;50.818;6.972;2023-04-06T12:23:59;13.48;;;9.07;;
15635;SDS011;7917;50.818;6.972;2023-04-06T12:26:26;13.60;;;8.88;;
15635;SDS011;7917;50.818;6.972;2023-04-06T12:28:53;15.48;;;9.00;;
15635;SDS011;7917;50.818;6.972;2023-04-06T12:31:21;16.65;;;8.85;;
15635;SDS011;7917;50.818;6.972;2023-04-06T12:33:48;13.35;;;8.68;;
15635;SDS011;7917;50.818;6.972;2023-04-06T12:36:19;14.90;;;9.07;;
15635;SDS011;7917;50.818;6.972;2023-04-06T12:38:47;15.45;;;9.98;;
15635;SDS011;7917;50.818;6.972;2023-04-06T12:41:14;13.45;;;8.65;;
15635;SDS011;7917;50.818;6.972;2023-04-06T12:43:42;16.92;;;8.40;;
15635;SDS011;7917;50.818;6.972;2023-04-06T12:46:10;13.18;;;8.52;;
15635;SDS011;7917;50.818;6.972;2023-04-06T12:48:37;13.60;;;8.98;;
15635;SDS011;7917;50.818;6.972;2023-04-06T12:51:05;12.13;;;7.72;;
15635;SDS011;7917;50.818;6.972;2023-04-06T12:53:32;12.05;;;7.57;;
15635;SDS011;7917;50.818;6.972;2023-04-06T12:56:00;11.35;;;8.10;;
15635;SDS011;7917;50.818;6.972;2023-04-06T12:58:27;12.75;;;8.18;;
15635;SDS011;7917;50.818;6.972;2023-04-06T13:00:55;14.10;;;8.52;;
15635;SDS011;7917;50.818;6.972;2023-04-06T13:03:27;15.13;;;8.35;;
15635;SDS011;7917;50.818;6.972;2023-04-06T13:05:55;10.20;;;8.10;;
15635;SDS011;7917;50.818;6.972;2023-04-06T13:08:22;15.70;;;9.02;;
15635;SDS011;7917;50.818;6.972;2023-04-06T13:10:52;11.90;;;8.93;;
15635;SDS011;7917;50.818;6.972;2023-04-06T13:13:21;12.95;;;8.95;;
15635;SDS011;7917;50.818;6.972;2023-04-06T13:15:49;11.02;;;7.78;;
15635;SDS011;7917;50.818;6.972;2023-04-06T13:18:16;12.77;;;8.05;;
15635;SDS011;7917;50.818;6.972;2023-04-06T13:20:43;13.25;;;8.10;;
15635;SDS011;7917;50.818;6.972;2023-04-06T13:23:10;12.65;;;7.93;;
15635;SDS011;7917;50.818;6.972;2023-04-06T13:25:36;12.60;;;8.07;;
15635;SDS011;7917;50.818;6.972;2023-04-06T13:28:03;26.77;;;13.07;;
15635;SDS011;7917;50.818;6.972;2023-04-06T13:30:30;12.63;;;7.90;;
15635;SDS011;7917;50.818;6.972;2023-04-06T13:32:59;12.80;;;8.88;;
15635;SDS011;7917;50.818;6.972;2023-04-06T13:35:27;15.40;;;8.73;;
15635;SDS011;7917;50.818;6.972;2023-04-06T13:37:53;10.75;;;7.28;;
15635;SDS011;7917;50.818;6.972;2023-04-06T13:40:23;14.30;;;7.65;;
15635;SDS011;7917;50.818;6.972;2023-04-06T13:42:50;12.75;;;7.68;;
15635;SDS011;7917;50.818;6.972;2023-04-06T13:45:17;10.18;;;7.15;;
15635;SDS011;7917;50.818;6.972;2023-04-06T13:47:44;11.93;;;7.30;;
15635;SDS011;7917;50.818;6.972;2023-04-06T13:50:11;14.27;;;9.07;;
15635;SDS011;7917;50.818;6.972;2023-04-06T13:52:38;12.52;;;8.15;;
15635;SDS011;7917;50.818;6.972;2023-04-06T13:55:05;12.25;;;8.00;;
15635;SDS011;7917;50.818;6.972;2023-04-06T13:57:32;12.18;;;7.95;;
15635;SDS011;7917;50.818;6.972;2023-04-06T13:59:58;12.88;;;8.55;;
15635;SDS011;7917;50.818;6.972;2023-04-06T14:02:29;11.15;;;7.22;;
15635;SDS011;7917;50.818;6.972;2023-04-06T14:04:58;11.88;;;7.63;;
15635;SDS011;7917;50.818;6.972;2023-04-06T14:07:24;13.52;;;7.80;;
15635;SDS011;7917;50.818;6.972;2023-04-06T14:09:51;10.13;;;7.05;;
15635;SDS011;7917;50.818;6.972;2023-04-06T14:12:18;8.48;;;6.35;;
15635;SDS011;7917;50.818;6.972;2023-04-06T14:14:47;10.52;;;6.95;;
15635;SDS011;7917;50.818;6.972;2023-04-06T14:17:25;10.50;;;6.78;;
15635;SDS011;7917;50.818;6.972;2023-04-06T14:19:52;14.40;;;6.90;;
15635;SDS011;7917;50.818;6.972;2023-04-06T14:22:18;10.52;;;7.22;;
15635;SDS011;7917;50.818;6.972;2023-04-06T14:24:45;10.30;;;6.78;;
15635;SDS011;7917;50.818;6.972;2023-04-06T14:27:13;12.30;;;8.40;;
15635;SDS011;7917;50.818;6.972;2023-04-06T14:29:39;12.00;;;7.90;;
15635;SDS011;7917;50.818;6.972;2023-04-06T14:32:06;14.45;;;9.35;;
15635;SDS011;7917;50.818;6.972;2023-04-06T14:34:33;13.40;;;8.02;;
15635;SDS011;7917;50.818;6.972;2023-04-06T14:37:02;11.65;;;8.07;;
15635;SDS011;7917;50.818;6.972;2023-04-06T14:39:29;9.00;;;6.93;;
15635;SDS011;7917;50.818;6.972;2023-04-06T14:41:55;9.35;;;6.15;;
15635;SDS011;7917;50.818;6.972;2023-04-06T14:44:23;7.93;;;6.15;;
15635;SDS011;7917;50.818;6.972;2023-04-06T14:46:51;9.05;;;6.72;;
15635;SDS011;7917;50.818;6.972;2023-04-06T14:49:18;9.48;;;6.45;;
15635;SDS011;7917;50.818;6.972;2023-04-06T14:51:45;12.40;;;7.65;;